sensor_id;sensor_type;location;lat;lon;timestamp;P1;durP1;ratioP1;P2;durP2;ratioP2
23404;SDS011;11875;49.356;2.718;2023-04-21T00:02:05;13.33;;;9.37;;
23404;SDS011;11875;49.356;2.718;2023-04-21T00:04:30;13.60;;;9.80;;
23404;SDS011;11875;49.356;2.718;2023-04-21T00:06:56;13.27;;;9.20;;
23404;SDS011;11875;49.356;2.718;2023-04-21T00:09:25;14.80;;;11.00;;
23404;SDS011;11875;49.356;2.718;2023-04-21T00:11:51;15.40;;;10.23;;
23404;SDS011;11875;49.356;2.718;2023-04-21T00:14:17;15.20;;;9.80;;
23404;SDS011;11875;49.356;2.718;2023-04-21T00:16:43;14.97;;;9.60;;
23404;SDS011;11875;49.356;2.718;2023-04-21T00:19:08;13.47;;;9.50;;
23404;SDS011;11875;49.356;2.718;2023-04-21T00:21:34;15.30;;;11.10;;
23404;SDS011;11875;49.356;2.718;2023-04-21T00:24:00;13.37;;;9.60;;
23404;SDS011;11875;49.356;2.718;2023-04-21T00:26:26;13.53;;;9.67;;
23404;SDS011;11875;49.356;2.718;2023-04-21T00:28:51;13.00;;;9.70;;
23404;SDS011;11875;49.356;2.718;2023-04-21T00:31:17;13.60;;;9.20;;
23404;SDS011;11875;49.356;2.718;2023-04-21T00:33:42;11.73;;;8.73;;
23404;SDS011;11875;49.356;2.718;2023-04-21T00:36:08;12.20;;;8.47;;
23404;SDS011;11875;49.356;2.718;2023-04-21T00:38:33;14.50;;;9.97;;
23404;SDS011;11875;49.356;2.718;2023-04-21T00:40:59;15.00;;;10.40;;
23404;SDS011;11875;49.356;2.718;2023-04-21T00:43:25;15.93;;;10.70;;
23404;SDS011;11875;49.356;2.718;2023-04-21T00:45:50;12.80;;;9.67;;
23404;SDS011;11875;49.356;2.718;2023-04-21T00:48:16;12.03;;;9.17;;
23404;SDS011;11875;49.356;2.718;2023-04-21T00:50:42;14.00;;;9.93;;
23404;SDS011;11875;49.356;2.718;2023-04-21T00:53:09;14.40;;;10.30;;
23404;SDS011;11875;49.356;2.718;2023-04-21T00:55:36;15.13;;;10.57;;
23404;SDS011;11875;49.356;2.718;2023-04-21T00:58:02;13.37;;;9.80;;
23404;SDS011;11875;49.356;2.718;2023-04-21T01:00:28;14.13;;;10.03;;
23404;SDS011;11875;49.356;2.718;2023-04-21T01:02:54;14.80;;;9.57;;
23404;SDS011;11875;49.356;2.718;2023-04-21T01:05:20;14.60;;;10.17;;
23404;SDS011;11875;49.356;2.718;2023-04-21T01:07:47;14.63;;;10.23;;
23404;SDS011;11875;49.356;2.718;2023-04-21T01:10:13;12.93;;;9.47;;
23404;SDS011;11875;49.356;2.718;2023-04-21T01:12:45;15.37;;;10.33;;
23404;SDS011;11875;49.356;2.718;2023-04-21T01:15:12;15.80;;;10.37;;
23404;SDS011;11875;49.356;2.718;2023-04-21T01:17:39;14.10;;;9.87;;
23404;SDS011;11875;49.356;2.718;2023-04-21T01:20:09;14.47;;;9.77;;
23404;SDS011;11875;49.356;2.718;2023-04-21T01:22:36;14.80;;;10.13;;
23404;SDS011;11875;49.356;2.718;2023-04-21T01:25:03;13.33;;;9.90;;
23404;SDS011;11875;49.356;2.718;2023-04-21T01:27:29;14.77;;;10.70;;
23404;SDS011;11875;49.356;2.718;2023-04-21T01:29:55;14.70;;;10.30;;
23404;SDS011;11875;49.356;2.718;2023-04-21T01:32:23;14.10;;;9.77;;
23404;SDS011;11875;49.356;2.718;2023-04-21T01:34:50;15.87;;;9.87;;
23404;SDS011;11875;49.356;2.718;2023-04-21T01:37:18;14.17;;;10.10;;
23404;SDS011;11875;49.356;2.718;2023-04-21T01:39:47;13.93;;;9.73;;
23404;SDS011;11875;49.356;2.718;2023-04-21T01:42:18;13.97;;;9.50;;
23404;SDS011;11875;49.356;2.718;2023-04-21T01:44:48;14.27;;;9.87;;
23404;SDS011;11875;49.356;2.718;2023-04-21T01:47:15;16.30;;;10.30;;
23404;SDS011;11875;49.356;2.718;2023-04-21T01:49:41;16.00;;;10.93;;
23404;SDS011;11875;49.356;2.718;2023-04-21T01:52:07;15.40;;;11.20;;
23404;SDS011;11875;49.356;2.718;2023-04-21T01:54:33;18.53;;;11.70;;
23404;SDS011;11875;49.356;2.718;2023-04-21T01:56:59;17.13;;;10.97;;
23404;SDS011;11875;49.356;2.718;2023-04-21T01:59:25;15.77;;;10.43;;
23404;SDS011;11875;49.356;2.718;2023-04-21T02:01:51;15.80;;;10.53;;
23404;SDS011;11875;49.356;2.718;2023-04-21T02:04:17;15.30;;;10.33;;
23404;SDS011;11875;49.356;2.718;2023-04-21T02:06:42;17.70;;;11.20;;
23404;SDS011;11875;49.356;2.718;2023-04-21T02:09:08;13.23;;;9.90;;
23404;SDS011;11875;49.356;2.718;2023-04-21T02:11:34;12.53;;;10.00;;
23404;SDS011;11875;49.356;2.718;2023-04-21T02:13:59;15.13;;;10.60;;
23404;SDS011;11875;49.356;2.718;2023-04-21T02:16:25;14.23;;;10.47;;
23404;SDS011;11875;49.356;2.718;2023-04-21T02:18:54;13.40;;;10.00;;
23404;SDS011;11875;49.356;2.718;2023-04-21T02:21:21;14.20;;;9.97;;
23404;SDS011;11875;49.356;2.718;2023-04-21T02:23:47;15.47;;;10.67;;
23404;SDS011;11875;49.356;2.718;2023-04-21T02:26:13;14.23;;;10.07;;
23404;SDS011;11875;49.356;2.718;2023-04-21T02:28:38;13.80;;;9.77;;
23404;SDS011;11875;49.356;2.718;2023-04-21T02:31:04;14.67;;;10.23;;
23404;SDS011;11875;49.356;2.718;2023-04-21T02:33:29;14.57;;;10.30;;
23404;SDS011;11875;49.356;2.718;2023-04-21T02:35:55;13.57;;;10.03;;
23404;SDS011;11875;49.356;2.718;2023-04-21T02:38:21;15.83;;;10.47;;
23404;SDS011;11875;49.356;2.718;2023-04-21T02:40:46;14.50;;;10.83;;
23404;SDS011;11875;49.356;2.718;2023-04-21T02:43:13;13.03;;;9.73;;
23404;SDS011;11875;49.356;2.718;2023-04-21T02:45:38;14.10;;;10.13;;
23404;SDS011;11875;49.356;2.718;2023-04-21T02:48:04;14.43;;;9.83;;
23404;SDS011;11875;49.356;2.718;2023-04-21T02:50:30;13.40;;;9.97;;
23404;SDS011;11875;49.356;2.718;2023-04-21T02:52:56;18.20;;;10.80;;
23404;SDS011;11875;49.356;2.718;2023-04-21T02:55:21;14.23;;;10.00;;
23404;SDS011;11875;49.356;2.718;2023-04-21T02:57:47;15.77;;;10.03;;
23404;SDS011;11875;49.356;2.718;2023-04-21T03:00:13;14.93;;;10.67;;
23404;SDS011;11875;49.356;2.718;2023-04-21T03:02:39;14.03;;;9.90;;
23404;SDS011;11875;49.356;2.718;2023-04-21T03:05:05;13.40;;;9.17;;
23404;SDS011;11875;49.356;2.718;2023-04-21T03:07:31;14.80;;;9.57;;
23404;SDS011;11875;49.356;2.718;2023-04-21T03:09:56;12.60;;;9.80;;
23404;SDS011;11875;49.356;2.718;2023-04-21T03:12:22;13.97;;;10.53;;
23404;SDS011;11875;49.356;2.718;2023-04-21T03:14:48;13.67;;;10.50;;
23404;SDS011;11875;49.356;2.718;2023-04-21T03:17:13;12.13;;;9.23;;
23404;SDS011;11875;49.356;2.718;2023-04-21T03:19:39;14.33;;;10.17;;
23404;SDS011;11875;49.356;2.718;2023-04-21T03:22:05;14.43;;;10.47;;
23404;SDS011;11875;49.356;2.718;2023-04-21T03:24:31;14.93;;;9.90;;
23404;SDS011;11875;49.356;2.718;2023-04-21T03:26:56;11.67;;;8.73;;
23404;SDS011;11875;49.356;2.718;2023-04-21T03:29:22;14.83;;;9.87;;
23404;SDS011;11875;49.356;2.718;2023-04-21T03:31:48;18.57;;;11.20;;
23404;SDS011;11875;49.356;2.718;2023-04-21T03:34:14;15.97;;;11.50;;
23404;SDS011;11875;49.356;2.718;2023-04-21T03:36:39;17.57;;;11.77;;
23404;SDS011;11875;49.356;2.718;2023-04-21T03:39:05;18.60;;;12.57;;
23404;SDS011;11875;49.356;2.718;2023-04-21T03:41:32;20.80;;;12.73;;
23404;SDS011;11875;49.356;2.718;2023-04-21T03:43:57;22.30;;;12.83;;
23404;SDS011;11875;49.356;2.718;2023-04-21T03:46:23;20.50;;;12.50;;
23404;SDS011;11875;49.356;2.718;2023-04-21T03:48:49;21.77;;;13.20;;
23404;SDS011;11875;49.356;2.718;2023-04-21T03:51:15;20.57;;;13.37;;
23404;SDS011;11875;49.356;2.718;2023-04-21T03:53:41;21.33;;;13.03;;
23404;SDS011;11875;49.356;2.718;2023-04-21T03:56:07;17.90;;;12.60;;
23404;SDS011;11875;49.356;2.718;2023-04-21T03:58:33;17.37;;;12.03;;
23404;SDS011;11875;49.356;2.718;2023-04-21T04:00:59;18.33;;;13.00;;
23404;SDS011;11875;49.356;2.718;2023-04-21T04:03:25;17.67;;;12.53;;
23404;SDS011;11875;49.356;2.718;2023-04-21T04:05:51;17.90;;;12.13;;
23404;SDS011;11875;49.356;2.718;2023-04-21T04:08:16;17.07;;;11.93;;
23404;SDS011;11875;49.356;2.718;2023-04-21T04:10:42;19.07;;;12.67;;
23404;SDS011;11875;49.356;2.718;2023-04-21T04:13:07;18.90;;;12.77;;
23404;SDS011;11875;49.356;2.718;2023-04-21T04:15:33;17.97;;;12.43;;
23404;SDS011;11875;49.356;2.718;2023-04-21T04:17:59;16.70;;;11.80;;
23404;SDS011;11875;49.356;2.718;2023-04-21T04:20:25;19.07;;;12.63;;
23404;SDS011;11875;49.356;2.718;2023-04-21T04:22:51;17.40;;;12.60;;
23404;SDS011;11875;49.356;2.718;2023-04-21T04:25:17;24.50;;;13.17;;
23404;SDS011;11875;49.356;2.718;2023-04-21T04:27:42;17.73;;;11.63;;
23404;SDS011;11875;49.356;2.718;2023-04-21T04:30:09;16.50;;;11.90;;
23404;SDS011;11875;49.356;2.718;2023-04-21T04:32:36;18.13;;;12.03;;
23404;SDS011;11875;49.356;2.718;2023-04-21T04:35:04;17.77;;;11.27;;
23404;SDS011;11875;49.356;2.718;2023-04-21T04:37:30;16.87;;;12.00;;
23404;SDS011;11875;49.356;2.718;2023-04-21T04:39:58;17.80;;;11.40;;
23404;SDS011;11875;49.356;2.718;2023-04-21T04:42:24;15.53;;;11.13;;
23404;SDS011;11875;49.356;2.718;2023-04-21T04:44:52;16.57;;;11.07;;
23404;SDS011;11875;49.356;2.718;2023-04-21T04:47:18;16.30;;;10.90;;
23404;SDS011;11875;49.356;2.718;2023-04-21T04:49:44;17.13;;;10.93;;
23404;SDS011;11875;49.356;2.718;2023-04-21T04:52:10;15.30;;;10.33;;
23404;SDS011;11875;49.356;2.718;2023-04-21T04:54:35;14.73;;;10.97;;
23404;SDS011;11875;49.356;2.718;2023-04-21T04:57:01;16.17;;;11.33;;
23404;SDS011;11875;49.356;2.718;2023-04-21T04:59:27;15.63;;;11.20;;
23404;SDS011;11875;49.356;2.718;2023-04-21T05:01:54;16.20;;;10.90;;
23404;SDS011;11875;49.356;2.718;2023-04-21T05:04:20;15.63;;;10.97;;
23404;SDS011;11875;49.356;2.718;2023-04-21T05:06:45;14.93;;;10.50;;
23404;SDS011;11875;49.356;2.718;2023-04-21T05:09:11;13.63;;;9.97;;
23404;SDS011;11875;49.356;2.718;2023-04-21T05:11:37;15.47;;;11.40;;
23404;SDS011;11875;49.356;2.718;2023-04-21T05:14:02;16.93;;;12.00;;
23404;SDS011;11875;49.356;2.718;2023-04-21T05:16:28;15.10;;;10.90;;
23404;SDS011;11875;49.356;2.718;2023-04-21T05:18:53;15.37;;;10.20;;
23404;SDS011;11875;49.356;2.718;2023-04-21T05:21:23;16.00;;;10.47;;
23404;SDS011;11875;49.356;2.718;2023-04-21T05:23:51;16.57;;;10.97;;
23404;SDS011;11875;49.356;2.718;2023-04-21T05:26:17;16.07;;;10.67;;
23404;SDS011;11875;49.356;2.718;2023-04-21T05:28:43;18.60;;;12.13;;
23404;SDS011;11875;49.356;2.718;2023-04-21T05:31:09;16.97;;;11.83;;
23404;SDS011;11875;49.356;2.718;2023-04-21T05:33:34;16.63;;;12.20;;
23404;SDS011;11875;49.356;2.718;2023-04-21T05:36:00;18.57;;;11.40;;
23404;SDS011;11875;49.356;2.718;2023-04-21T05:38:25;16.97;;;11.43;;
23404;SDS011;11875;49.356;2.718;2023-04-21T05:40:54;17.47;;;11.73;;
23404;SDS011;11875;49.356;2.718;2023-04-21T05:43:20;16.97;;;12.13;;
23404;SDS011;11875;49.356;2.718;2023-04-21T05:45:47;16.13;;;11.33;;
23404;SDS011;11875;49.356;2.718;2023-04-21T05:48:12;17.37;;;12.03;;
23404;SDS011;11875;49.356;2.718;2023-04-21T05:50:38;18.00;;;11.50;;
23404;SDS011;11875;49.356;2.718;2023-04-21T05:53:03;18.27;;;12.20;;
23404;SDS011;11875;49.356;2.718;2023-04-21T05:55:29;16.93;;;11.70;;
23404;SDS011;11875;49.356;2.718;2023-04-21T05:57:55;17.77;;;11.83;;
23404;SDS011;11875;49.356;2.718;2023-04-21T06:00:20;17.43;;;11.27;;
23404;SDS011;11875;49.356;2.718;2023-04-21T06:02:46;21.63;;;16.17;;
23404;SDS011;11875;49.356;2.718;2023-04-21T06:05:12;16.57;;;11.90;;
23404;SDS011;11875;49.356;2.718;2023-04-21T06:07:37;27.50;;;11.97;;
23404;SDS011;11875;49.356;2.718;2023-04-21T06:10:03;18.67;;;11.03;;
23404;SDS011;11875;49.356;2.718;2023-04-21T06:12:28;16.43;;;11.30;;
23404;SDS011;11875;49.356;2.718;2023-04-21T06:14:54;19.53;;;11.63;;
23404;SDS011;11875;49.356;2.718;2023-04-21T06:17:22;17.90;;;11.10;;
23404;SDS011;11875;49.356;2.718;2023-04-21T06:19:47;20.10;;;11.57;;
23404;SDS011;11875;49.356;2.718;2023-04-21T06:22:20;16.77;;;10.40;;
23404;SDS011;11875;49.356;2.718;2023-04-21T06:24:46;16.00;;;10.23;;
23404;SDS011;11875;49.356;2.718;2023-04-21T06:27:12;12.33;;;9.40;;
23404;SDS011;11875;49.356;2.718;2023-04-21T06:29:38;15.50;;;10.03;;
23404;SDS011;11875;49.356;2.718;2023-04-21T06:32:04;14.13;;;9.60;;
23404;SDS011;11875;49.356;2.718;2023-04-21T06:34:29;15.40;;;10.40;;
23404;SDS011;11875;49.356;2.718;2023-04-21T06:36:55;16.17;;;9.67;;
23404;SDS011;11875;49.356;2.718;2023-04-21T06:39:20;13.87;;;9.77;;
23404;SDS011;11875;49.356;2.718;2023-04-21T06:41:46;13.47;;;9.47;;
23404;SDS011;11875;49.356;2.718;2023-04-21T06:44:11;14.43;;;10.23;;
23404;SDS011;11875;49.356;2.718;2023-04-21T06:46:38;12.53;;;8.77;;
23404;SDS011;11875;49.356;2.718;2023-04-21T06:49:05;19.77;;;10.57;;
23404;SDS011;11875;49.356;2.718;2023-04-21T06:51:31;13.07;;;8.83;;
23404;SDS011;11875;49.356;2.718;2023-04-21T06:53:57;13.73;;;9.30;;
23404;SDS011;11875;49.356;2.718;2023-04-21T06:56:22;17.13;;;9.83;;
23404;SDS011;11875;49.356;2.718;2023-04-21T06:58:48;12.90;;;9.23;;
23404;SDS011;11875;49.356;2.718;2023-04-21T07:01:14;12.40;;;9.30;;
23404;SDS011;11875;49.356;2.718;2023-04-21T07:03:39;14.63;;;9.97;;
23404;SDS011;11875;49.356;2.718;2023-04-21T07:06:05;16.50;;;10.60;;
23404;SDS011;11875;49.356;2.718;2023-04-21T07:08:31;16.47;;;9.73;;
23404;SDS011;11875;49.356;2.718;2023-04-21T07:10:56;13.93;;;10.00;;
23404;SDS011;11875;49.356;2.718;2023-04-21T07:13:22;24.83;;;11.13;;
23404;SDS011;11875;49.356;2.718;2023-04-21T07:15:48;19.43;;;12.03;;
23404;SDS011;11875;49.356;2.718;2023-04-21T07:18:13;20.53;;;14.60;;
23404;SDS011;11875;49.356;2.718;2023-04-21T07:20:39;28.77;;;19.50;;
23404;SDS011;11875;49.356;2.718;2023-04-21T07:23:05;35.40;;;21.00;;
23404;SDS011;11875;49.356;2.718;2023-04-21T07:25:30;29.97;;;19.27;;
23404;SDS011;11875;49.356;2.718;2023-04-21T07:27:56;33.23;;;21.67;;
23404;SDS011;11875;49.356;2.718;2023-04-21T07:30:22;32.63;;;22.10;;
23404;SDS011;11875;49.356;2.718;2023-04-21T07:32:47;33.13;;;21.97;;
23404;SDS011;11875;49.356;2.718;2023-04-21T07:35:13;38.33;;;23.03;;
23404;SDS011;11875;49.356;2.718;2023-04-21T07:37:38;32.23;;;21.30;;
23404;SDS011;11875;49.356;2.718;2023-04-21T07:40:05;39.20;;;24.17;;
23404;SDS011;11875;49.356;2.718;2023-04-21T07:42:34;32.23;;;19.90;;
23404;SDS011;11875;49.356;2.718;2023-04-21T07:44:59;38.57;;;21.37;;
23404;SDS011;11875;49.356;2.718;2023-04-21T07:47:26;24.00;;;17.27;;
23404;SDS011;11875;49.356;2.718;2023-04-21T07:49:52;23.17;;;17.30;;
23404;SDS011;11875;49.356;2.718;2023-04-21T07:52:18;23.50;;;17.17;;
23404;SDS011;11875;49.356;2.718;2023-04-21T07:54:43;29.40;;;19.50;;
23404;SDS011;11875;49.356;2.718;2023-04-21T07:57:09;25.97;;;18.27;;
23404;SDS011;11875;49.356;2.718;2023-04-21T07:59:35;23.50;;;16.73;;
23404;SDS011;11875;49.356;2.718;2023-04-21T08:02:00;21.33;;;14.57;;
23404;SDS011;11875;49.356;2.718;2023-04-21T08:04:26;18.00;;;13.53;;
23404;SDS011;11875;49.356;2.718;2023-04-21T08:06:51;14.17;;;9.70;;
23404;SDS011;11875;49.356;2.718;2023-04-21T08:09:17;10.97;;;8.77;;
23404;SDS011;11875;49.356;2.718;2023-04-21T08:11:43;11.43;;;8.20;;
23404;SDS011;11875;49.356;2.718;2023-04-21T08:14:08;19.43;;;9.10;;
23404;SDS011;11875;49.356;2.718;2023-04-21T08:16:36;10.07;;;7.17;;
23404;SDS011;11875;49.356;2.718;2023-04-21T08:19:02;9.03;;;7.27;;
23404;SDS011;11875;49.356;2.718;2023-04-21T08:21:28;11.20;;;7.67;;
23404;SDS011;11875;49.356;2.718;2023-04-21T08:23:55;10.17;;;7.50;;
23404;SDS011;11875;49.356;2.718;2023-04-21T08:26:21;9.47;;;7.20;;
23404;SDS011;11875;49.356;2.718;2023-04-21T08:28:47;9.53;;;7.60;;
23404;SDS011;11875;49.356;2.718;2023-04-21T08:31:14;9.23;;;7.77;;
23404;SDS011;11875;49.356;2.718;2023-04-21T08:33:39;13.23;;;7.60;;
23404;SDS011;11875;49.356;2.718;2023-04-21T08:36:05;10.87;;;7.70;;
23404;SDS011;11875;49.356;2.718;2023-04-21T08:38:31;11.63;;;7.63;;
23404;SDS011;11875;49.356;2.718;2023-04-21T08:40:58;10.53;;;7.97;;
23404;SDS011;11875;49.356;2.718;2023-04-21T08:43:24;19.30;;;8.47;;
23404;SDS011;11875;49.356;2.718;2023-04-21T08:45:50;15.73;;;8.90;;
23404;SDS011;11875;49.356;2.718;2023-04-21T08:48:18;12.77;;;7.87;;
23404;SDS011;11875;49.356;2.718;2023-04-21T08:50:46;12.83;;;8.70;;
23404;SDS011;11875;49.356;2.718;2023-04-21T08:53:13;11.67;;;8.20;;
23404;SDS011;11875;49.356;2.718;2023-04-21T08:55:40;11.90;;;8.17;;
23404;SDS011;11875;49.356;2.718;2023-04-21T08:58:06;14.07;;;8.53;;
23404;SDS011;11875;49.356;2.718;2023-04-21T09:00:33;11.63;;;8.20;;
23404;SDS011;11875;49.356;2.718;2023-04-21T09:02:59;12.80;;;9.13;;
23404;SDS011;11875;49.356;2.718;2023-04-21T09:05:26;13.67;;;10.47;;
23404;SDS011;11875;49.356;2.718;2023-04-21T09:08:09;13.13;;;9.37;;
23404;SDS011;11875;49.356;2.718;2023-04-21T09:10:45;11.47;;;8.77;;
23404;SDS011;11875;49.356;2.718;2023-04-21T09:13:14;11.70;;;9.43;;
23404;SDS011;11875;49.356;2.718;2023-04-21T09:15:41;13.40;;;9.90;;
23404;SDS011;11875;49.356;2.718;2023-04-21T09:18:20;12.90;;;8.97;;
23404;SDS011;11875;49.356;2.718;2023-04-21T09:20:49;11.40;;;8.27;;
23404;SDS011;11875;49.356;2.718;2023-04-21T09:23:16;9.67;;;7.27;;
23404;SDS011;11875;49.356;2.718;2023-04-21T09:25:42;9.80;;;7.57;;
23404;SDS011;11875;49.356;2.718;2023-04-21T09:28:10;9.63;;;7.43;;
23404;SDS011;11875;49.356;2.718;2023-04-21T09:30:37;9.90;;;7.80;;
23404;SDS011;11875;49.356;2.718;2023-04-21T09:33:04;11.70;;;7.67;;
23404;SDS011;11875;49.356;2.718;2023-04-21T09:35:33;11.30;;;7.33;;
23404;SDS011;11875;49.356;2.718;2023-04-21T09:38:00;8.50;;;7.17;;
23404;SDS011;11875;49.356;2.718;2023-04-21T09:40:30;8.27;;;7.23;;
23404;SDS011;11875;49.356;2.718;2023-04-21T09:42:56;8.40;;;7.03;;
23404;SDS011;11875;49.356;2.718;2023-04-21T09:45:23;9.77;;;7.50;;
23404;SDS011;11875;49.356;2.718;2023-04-21T09:47:51;11.70;;;7.83;;
23404;SDS011;11875;49.356;2.718;2023-04-21T09:50:21;8.60;;;7.40;;
23404;SDS011;11875;49.356;2.718;2023-04-21T09:52:49;9.07;;;7.10;;
23404;SDS011;11875;49.356;2.718;2023-04-21T09:55:16;10.63;;;7.40;;
23404;SDS011;11875;49.356;2.718;2023-04-21T09:57:43;7.85;;;7.05;;
23404;SDS011;11875;49.356;2.718;2023-04-21T10:00:12;12.07;;;7.25;;
23404;SDS011;11875;49.356;2.718;2023-04-21T10:02:57;9.50;;;7.45;;
23404;SDS011;11875;49.356;2.718;2023-04-21T10:05:28;9.00;;;7.47;;
23404;SDS011;11875;49.356;2.718;2023-04-21T10:07:54;8.47;;;7.50;;
23404;SDS011;11875;49.356;2.718;2023-04-21T10:10:24;7.90;;;7.07;;
23404;SDS011;11875;49.356;2.718;2023-04-21T10:12:51;9.30;;;7.40;;
23404;SDS011;11875;49.356;2.718;2023-04-21T10:18:15;9.40;;;7.23;;
23404;SDS011;11875;49.356;2.718;2023-04-21T10:21:17;10.97;;;7.93;;
23404;SDS011;11875;49.356;2.718;2023-04-21T10:23:45;9.27;;;6.37;;
23404;SDS011;11875;49.356;2.718;2023-04-21T10:26:22;10.07;;;7.10;;
23404;SDS011;11875;49.356;2.718;2023-04-21T10:28:57;9.17;;;7.80;;
23404;SDS011;11875;49.356;2.718;2023-04-21T10:31:32;12.00;;;6.80;;
23404;SDS011;11875;49.356;2.718;2023-04-21T10:40:03;9.90;;;7.27;;
23404;SDS011;11875;49.356;2.718;2023-04-21T10:44:41;8.67;;;7.13;;
23404;SDS011;11875;49.356;2.718;2023-04-21T10:47:07;10.47;;;7.43;;
23404;SDS011;11875;49.356;2.718;2023-04-21T10:49:37;9.10;;;7.80;;
23404;SDS011;11875;49.356;2.718;2023-04-21T10:52:04;11.43;;;7.10;;
23404;SDS011;11875;49.356;2.718;2023-04-21T10:54:36;9.57;;;7.28;;
23404;SDS011;11875;49.356;2.718;2023-04-21T10:57:11;15.13;;;8.90;;
23404;SDS011;11875;49.356;2.718;2023-04-21T10:59:38;10.67;;;8.20;;
23404;SDS011;11875;49.356;2.718;2023-04-21T11:02:05;16.97;;;9.80;;
23404;SDS011;11875;49.356;2.718;2023-04-21T11:04:32;8.57;;;7.00;;
23404;SDS011;11875;49.356;2.718;2023-04-21T11:07:07;10.23;;;8.33;;
23404;SDS011;11875;49.356;2.718;2023-04-21T11:09:33;11.33;;;7.80;;
23404;SDS011;11875;49.356;2.718;2023-04-21T11:12:01;11.37;;;8.60;;
23404;SDS011;11875;49.356;2.718;2023-04-21T11:14:28;22.13;;;9.73;;
23404;SDS011;11875;49.356;2.718;2023-04-21T11:16:55;11.00;;;8.77;;
23404;SDS011;11875;49.356;2.718;2023-04-21T11:19:20;11.67;;;8.57;;
23404;SDS011;11875;49.356;2.718;2023-04-21T11:21:50;13.87;;;8.73;;
23404;SDS011;11875;49.356;2.718;2023-04-21T11:24:19;16.73;;;9.17;;
23404;SDS011;11875;49.356;2.718;2023-04-21T11:26:45;11.67;;;8.83;;
23404;SDS011;11875;49.356;2.718;2023-04-21T11:29:10;11.03;;;9.50;;
23404;SDS011;11875;49.356;2.718;2023-04-21T11:31:37;11.07;;;9.20;;
23404;SDS011;11875;49.356;2.718;2023-04-21T11:34:04;15.03;;;9.73;;
23404;SDS011;11875;49.356;2.718;2023-04-21T11:36:34;17.50;;;9.50;;
23404;SDS011;11875;49.356;2.718;2023-04-21T11:39:04;17.57;;;10.50;;
23404;SDS011;11875;49.356;2.718;2023-04-21T11:41:34;13.67;;;10.13;;
23404;SDS011;11875;49.356;2.718;2023-04-21T11:44:02;15.00;;;9.17;;
23404;SDS011;11875;49.356;2.718;2023-04-21T11:46:28;12.13;;;9.90;;
23404;SDS011;11875;49.356;2.718;2023-04-21T11:49:01;12.35;;;9.13;;
23404;SDS011;11875;49.356;2.718;2023-04-21T11:51:38;11.07;;;9.13;;
23404;SDS011;11875;49.356;2.718;2023-04-21T11:54:05;10.35;;;9.25;;
23404;SDS011;11875;49.356;2.718;2023-04-21T11:56:39;12.50;;;9.70;;
23404;SDS011;11875;49.356;2.718;2023-04-21T12:04:15;12.32;;;9.40;;
23404;SDS011;11875;49.356;2.718;2023-04-21T12:06:45;15.98;;;8.95;;
23404;SDS011;11875;49.356;2.718;2023-04-21T12:09:19;10.30;;;9.15;;
23404;SDS011;11875;49.356;2.718;2023-04-21T12:11:49;11.73;;;8.75;;
23404;SDS011;11875;49.356;2.718;2023-04-21T12:14:19;13.10;;;10.07;;
23404;SDS011;11875;49.356;2.718;2023-04-21T12:16:53;12.93;;;9.95;;
23404;SDS011;11875;49.356;2.718;2023-04-21T12:19:23;12.07;;;9.48;;
23404;SDS011;11875;49.356;2.718;2023-04-21T12:21:59;10.95;;;8.73;;
23404;SDS011;11875;49.356;2.718;2023-04-21T12:24:25;10.85;;;9.65;;
23404;SDS011;11875;49.356;2.718;2023-04-21T12:26:51;14.85;;;9.77;;
23404;SDS011;11875;49.356;2.718;2023-04-21T12:29:16;13.48;;;8.70;;
23404;SDS011;11875;49.356;2.718;2023-04-21T12:31:42;11.75;;;8.93;;
23404;SDS011;11875;49.356;2.718;2023-04-21T12:34:08;12.00;;;8.88;;
23404;SDS011;11875;49.356;2.718;2023-04-21T12:36:33;13.63;;;9.55;;
23404;SDS011;11875;49.356;2.718;2023-04-21T12:38:59;11.88;;;9.43;;
23404;SDS011;11875;49.356;2.718;2023-04-21T12:41:25;10.32;;;8.57;;
23404;SDS011;11875;49.356;2.718;2023-04-21T12:43:50;10.02;;;8.52;;
23404;SDS011;11875;49.356;2.718;2023-04-21T12:46:16;9.55;;;8.45;;
23404;SDS011;11875;49.356;2.718;2023-04-21T12:48:41;11.45;;;8.73;;
23404;SDS011;11875;49.356;2.718;2023-04-21T12:51:07;10.80;;;8.77;;
23404;SDS011;11875;49.356;2.718;2023-04-21T12:53:32;12.27;;;9.52;;
23404;SDS011;11875;49.356;2.718;2023-04-21T12:55:58;12.77;;;8.65;;
23404;SDS011;11875;49.356;2.718;2023-04-21T12:58:24;10.55;;;9.10;;
23404;SDS011;11875;49.356;2.718;2023-04-21T13:00:49;11.27;;;9.00;;
23404;SDS011;11875;49.356;2.718;2023-04-21T13:03:15;10.15;;;8.57;;
23404;SDS011;11875;49.356;2.718;2023-04-21T13:05:40;11.73;;;9.57;;
23404;SDS011;11875;49.356;2.718;2023-04-21T13:08:08;10.93;;;8.57;;
23404;SDS011;11875;49.356;2.718;2023-04-21T13:10:33;9.82;;;8.63;;
23404;SDS011;11875;49.356;2.718;2023-04-21T13:12:59;11.77;;;8.68;;
23404;SDS011;11875;49.356;2.718;2023-04-21T13:15:24;10.35;;;8.27;;
23404;SDS011;11875;49.356;2.718;2023-04-21T13:17:50;10.93;;;7.85;;
23404;SDS011;11875;49.356;2.718;2023-04-21T13:20:16;7.90;;;6.82;;
23404;SDS011;11875;49.356;2.718;2023-04-21T13:22:43;8.55;;;6.95;;
23404;SDS011;11875;49.356;2.718;2023-04-21T13:25:09;12.15;;;8.85;;
23404;SDS011;11875;49.356;2.718;2023-04-21T13:27:34;8.63;;;6.78;;
23404;SDS011;11875;49.356;2.718;2023-04-21T13:30:02;8.43;;;7.32;;
23404;SDS011;11875;49.356;2.718;2023-04-21T13:32:30;8.77;;;7.05;;
23404;SDS011;11875;49.356;2.718;2023-04-21T13:34:56;8.77;;;6.95;;
23404;SDS011;11875;49.356;2.718;2023-04-21T13:37:22;8.32;;;7.53;;
23404;SDS011;11875;49.356;2.718;2023-04-21T13:39:47;6.90;;;6.13;;
23404;SDS011;11875;49.356;2.718;2023-04-21T13:42:13;7.38;;;6.68;;
23404;SDS011;11875;49.356;2.718;2023-04-21T13:44:38;7.35;;;6.00;;
23404;SDS011;11875;49.356;2.718;2023-04-21T13:47:04;7.35;;;6.05;;
23404;SDS011;11875;49.356;2.718;2023-04-21T13:49:30;8.00;;;5.70;;
23404;SDS011;11875;49.356;2.718;2023-04-21T13:51:55;7.90;;;5.95;;
23404;SDS011;11875;49.356;2.718;2023-04-21T13:54:21;6.88;;;5.78;;
23404;SDS011;11875;49.356;2.718;2023-04-21T13:56:46;6.22;;;5.60;;
23404;SDS011;11875;49.356;2.718;2023-04-21T13:59:12;7.85;;;5.88;;
23404;SDS011;11875;49.356;2.718;2023-04-21T14:01:40;10.25;;;6.68;;
23404;SDS011;11875;49.356;2.718;2023-04-21T14:04:06;7.43;;;5.85;;
23404;SDS011;11875;49.356;2.718;2023-04-21T14:06:32;8.10;;;7.28;;
23404;SDS011;11875;49.356;2.718;2023-04-21T14:08:57;13.20;;;5.97;;
23404;SDS011;11875;49.356;2.718;2023-04-21T14:11:23;7.68;;;6.43;;
23404;SDS011;11875;49.356;2.718;2023-04-21T14:13:49;7.90;;;6.10;;
23404;SDS011;11875;49.356;2.718;2023-04-21T14:16:14;8.18;;;5.07;;
23404;SDS011;11875;49.356;2.718;2023-04-21T14:18:40;9.80;;;6.57;;
23404;SDS011;11875;49.356;2.718;2023-04-21T14:21:09;10.73;;;8.35;;
23404;SDS011;11875;49.356;2.718;2023-04-21T14:23:35;9.88;;;6.38;;
23404;SDS011;11875;49.356;2.718;2023-04-21T14:26:02;6.65;;;5.75;;
23404;SDS011;11875;49.356;2.718;2023-04-21T14:28:28;9.15;;;5.97;;
23404;SDS011;11875;49.356;2.718;2023-04-21T14:30:54;6.32;;;5.65;;
23404;SDS011;11875;49.356;2.718;2023-04-21T14:33:20;6.13;;;5.28;;
23404;SDS011;11875;49.356;2.718;2023-04-21T14:35:46;7.65;;;6.10;;
23404;SDS011;11875;49.356;2.718;2023-04-21T14:38:11;6.95;;;5.55;;
23404;SDS011;11875;49.356;2.718;2023-04-21T14:40:37;6.63;;;5.57;;
23404;SDS011;11875;49.356;2.718;2023-04-21T14:43:02;6.43;;;5.53;;
23404;SDS011;11875;49.356;2.718;2023-04-21T14:45:28;10.30;;;5.63;;